sensor_id;sensor_type;location;lat;lon;timestamp;P1;durP1;ratioP1;P2;durP2;ratioP2
4857;SDS011;58975;51.978;8.472;2022-10-16T00:01:16;7.90;;;3.42;;
4857;SDS011;58975;51.978;8.472;2022-10-16T00:06:16;12.52;;;4.47;;
4857;SDS011;58975;51.978;8.472;2022-10-16T00:11:19;5.20;;;3.92;;
4857;SDS011;58975;51.978;8.472;2022-10-16T00:16:20;7.38;;;3.42;;
4857;SDS011;58975;51.978;8.472;2022-10-16T00:21:17;5.72;;;3.38;;
4857;SDS011;58975;51.978;8.472;2022-10-16T00:26:16;4.97;;;3.58;;
4857;SDS011;58975;51.978;8.472;2022-10-16T00:31:13;7.70;;;4.07;;
4857;SDS011;58975;51.978;8.472;2022-10-16T00:36:11;4.82;;;3.25;;
4857;SDS011;58975;51.978;8.472;2022-10-16T00:41:13;11.75;;;3.70;;
4857;SDS011;58975;51.978;8.472;2022-10-16T00:46:20;7.80;;;4.15;;
4857;SDS011;58975;51.978;8.472;2022-10-16T00:51:21;6.93;;;3.60;;
4857;SDS011;58975;51.978;8.472;2022-10-16T00:56:21;5.25;;;3.72;;
4857;SDS011;58975;51.978;8.472;2022-10-16T01:01:18;7.95;;;4.20;;
4857;SDS011;58975;51.978;8.472;2022-10-16T01:11:54;4.07;;;3.60;;
4857;SDS011;58975;51.978;8.472;2022-10-16T01:17:09;6.75;;;3.67;;
4857;SDS011;58975;51.978;8.472;2022-10-16T01:22:09;4.78;;;3.63;;
4857;SDS011;58975;51.978;8.472;2022-10-16T01:27:09;4.00;;;3.60;;
4857;SDS011;58975;51.978;8.472;2022-10-16T01:32:16;7.43;;;3.85;;
4857;SDS011;58975;51.978;8.472;2022-10-16T01:37:18;3.33;;;2.88;;
4857;SDS011;58975;51.978;8.472;2022-10-16T01:42:24;5.13;;;3.25;;
4857;SDS011;58975;51.978;8.472;2022-10-16T01:47:31;7.22;;;3.13;;
4857;SDS011;58975;51.978;8.472;2022-10-16T01:52:28;5.63;;;3.28;;
4857;SDS011;58975;51.978;8.472;2022-10-16T01:57:25;8.13;;;4.32;;
4857;SDS011;58975;51.978;8.472;2022-10-16T02:02:24;7.45;;;4.03;;
4857;SDS011;58975;51.978;8.472;2022-10-16T02:07:24;4.72;;;3.40;;
4857;SDS011;58975;51.978;8.472;2022-10-16T02:12:23;4.10;;;3.33;;
4857;SDS011;58975;51.978;8.472;2022-10-16T02:17:23;6.78;;;3.35;;
4857;SDS011;58975;51.978;8.472;2022-10-16T02:22:32;7.20;;;3.90;;
4857;SDS011;58975;51.978;8.472;2022-10-16T02:32:49;5.53;;;3.45;;
4857;SDS011;58975;51.978;8.472;2022-10-16T02:37:48;9.35;;;4.15;;
4857;SDS011;58975;51.978;8.472;2022-10-16T02:42:49;6.95;;;3.65;;
4857;SDS011;58975;51.978;8.472;2022-10-16T02:47:46;8.73;;;4.78;;
4857;SDS011;58975;51.978;8.472;2022-10-16T02:52:43;6.00;;;4.15;;
4857;SDS011;58975;51.978;8.472;2022-10-16T02:57:40;8.43;;;4.20;;
4857;SDS011;58975;51.978;8.472;2022-10-16T03:02:36;6.20;;;4.80;;
4857;SDS011;58975;51.978;8.472;2022-10-16T03:07:33;5.85;;;4.22;;
4857;SDS011;58975;51.978;8.472;2022-10-16T03:12:29;5.38;;;3.55;;
4857;SDS011;58975;51.978;8.472;2022-10-16T03:17:26;6.47;;;4.15;;
4857;SDS011;58975;51.978;8.472;2022-10-16T03:22:23;8.38;;;4.10;;
4857;SDS011;58975;51.978;8.472;2022-10-16T03:27:19;7.25;;;4.10;;
4857;SDS011;58975;51.978;8.472;2022-10-16T03:32:15;6.35;;;4.07;;
4857;SDS011;58975;51.978;8.472;2022-10-16T03:37:12;4.63;;;3.50;;
4857;SDS011;58975;51.978;8.472;2022-10-16T03:42:08;10.35;;;4.53;;
4857;SDS011;58975;51.978;8.472;2022-10-16T03:47:05;8.55;;;4.55;;
4857;SDS011;58975;51.978;8.472;2022-10-16T03:52:01;8.75;;;4.03;;
4857;SDS011;58975;51.978;8.472;2022-10-16T03:56:57;11.57;;;3.85;;
4857;SDS011;58975;51.978;8.472;2022-10-16T04:01:54;10.38;;;4.88;;
4857;SDS011;58975;51.978;8.472;2022-10-16T04:06:50;6.78;;;4.18;;
4857;SDS011;58975;51.978;8.472;2022-10-16T04:11:47;8.50;;;3.70;;
4857;SDS011;58975;51.978;8.472;2022-10-16T04:16:43;7.93;;;4.25;;
4857;SDS011;58975;51.978;8.472;2022-10-16T04:21:40;6.35;;;3.53;;
4857;SDS011;58975;51.978;8.472;2022-10-16T04:26:36;6.90;;;3.75;;
4857;SDS011;58975;51.978;8.472;2022-10-16T04:31:33;6.13;;;3.80;;
4857;SDS011;58975;51.978;8.472;2022-10-16T04:36:29;7.55;;;3.50;;
4857;SDS011;58975;51.978;8.472;2022-10-16T04:41:26;6.50;;;3.30;;
4857;SDS011;58975;51.978;8.472;2022-10-16T04:46:23;3.95;;;3.42;;
4857;SDS011;58975;51.978;8.472;2022-10-16T04:51:19;7.30;;;2.67;;
4857;SDS011;58975;51.978;8.472;2022-10-16T04:56:15;4.28;;;2.70;;
4857;SDS011;58975;51.978;8.472;2022-10-16T05:01:12;4.25;;;2.90;;
4857;SDS011;58975;51.978;8.472;2022-10-16T05:06:09;3.47;;;3.03;;
4857;SDS011;58975;51.978;8.472;2022-10-16T05:11:05;4.47;;;2.72;;
4857;SDS011;58975;51.978;8.472;2022-10-16T05:16:02;4.25;;;2.83;;
4857;SDS011;58975;51.978;8.472;2022-10-16T05:20:58;2.30;;;2.10;;
4857;SDS011;58975;51.978;8.472;2022-10-16T05:25:55;4.65;;;2.60;;
4857;SDS011;58975;51.978;8.472;2022-10-16T05:30:54;5.20;;;2.50;;
4857;SDS011;58975;51.978;8.472;2022-10-16T05:35:51;3.85;;;2.42;;
4857;SDS011;58975;51.978;8.472;2022-10-16T05:40:51;2.53;;;2.10;;
4857;SDS011;58975;51.978;8.472;2022-10-16T05:45:59;2.17;;;1.83;;
4857;SDS011;58975;51.978;8.472;2022-10-16T05:51:04;4.32;;;1.67;;
4857;SDS011;58975;51.978;8.472;2022-10-16T05:56:03;3.08;;;1.98;;
4857;SDS011;58975;51.978;8.472;2022-10-16T06:01:04;4.45;;;1.92;;
4857;SDS011;58975;51.978;8.472;2022-10-16T06:06:13;3.53;;;2.00;;
4857;SDS011;58975;51.978;8.472;2022-10-16T06:11:12;2.50;;;1.90;;
4857;SDS011;58975;51.978;8.472;2022-10-16T06:16:13;4.32;;;2.17;;
4857;SDS011;58975;51.978;8.472;2022-10-16T06:21:10;2.35;;;1.95;;
4857;SDS011;58975;51.978;8.472;2022-10-16T06:26:11;1.65;;;1.55;;
4857;SDS011;58975;51.978;8.472;2022-10-16T06:31:09;2.20;;;1.73;;
4857;SDS011;58975;51.978;8.472;2022-10-16T06:36:10;5.20;;;1.80;;
4857;SDS011;58975;51.978;8.472;2022-10-16T06:41:10;5.63;;;1.80;;
4857;SDS011;58975;51.978;8.472;2022-10-16T06:46:09;2.83;;;1.65;;
4857;SDS011;58975;51.978;8.472;2022-10-16T06:51:11;5.80;;;1.52;;
4857;SDS011;58975;51.978;8.472;2022-10-16T06:56:17;2.42;;;1.40;;
4857;SDS011;58975;51.978;8.472;2022-10-16T07:01:16;4.93;;;1.20;;
4857;SDS011;58975;51.978;8.472;2022-10-16T07:06:15;2.20;;;1.17;;
4857;SDS011;58975;51.978;8.472;2022-10-16T07:11:15;2.05;;;1.52;;
4857;SDS011;58975;51.978;8.472;2022-10-16T07:16:14;6.38;;;1.40;;
4857;SDS011;58975;51.978;8.472;2022-10-16T07:21:13;2.63;;;1.30;;
4857;SDS011;58975;51.978;8.472;2022-10-16T07:26:11;1.95;;;1.33;;
4857;SDS011;58975;51.978;8.472;2022-10-16T07:31:09;3.15;;;1.08;;
4857;SDS011;58975;51.978;8.472;2022-10-16T07:36:07;4.47;;;1.20;;
4857;SDS011;58975;51.978;8.472;2022-10-16T07:41:11;2.58;;;1.00;;
4857;SDS011;58975;51.978;8.472;2022-10-16T07:46:09;3.53;;;1.27;;
4857;SDS011;58975;51.978;8.472;2022-10-16T07:51:06;1.13;;;1.00;;
4857;SDS011;58975;51.978;8.472;2022-10-16T07:56:04;0.70;;;0.70;;
4857;SDS011;58975;51.978;8.472;2022-10-16T08:01:05;0.80;;;0.80;;
4857;SDS011;58975;51.978;8.472;2022-10-16T08:06:03;1.45;;;1.17;;
4857;SDS011;58975;51.978;8.472;2022-10-16T08:11:00;4.97;;;0.93;;
4857;SDS011;58975;51.978;8.472;2022-10-16T08:15:59;1.42;;;1.30;;
4857;SDS011;58975;51.978;8.472;2022-10-16T08:20:58;2.90;;;1.33;;
4857;SDS011;58975;51.978;8.472;2022-10-16T08:25:56;8.80;;;1.70;;
4857;SDS011;58975;51.978;8.472;2022-10-16T08:31:32;3.05;;;1.20;;
4857;SDS011;58975;51.978;8.472;2022-10-16T08:36:23;1.23;;;0.90;;
4857;SDS011;58975;51.978;8.472;2022-10-16T08:46:54;3.05;;;1.27;;
4857;SDS011;58975;51.978;8.472;2022-10-16T08:52:15;1.20;;;0.90;;
4857;SDS011;58975;51.978;8.472;2022-10-16T08:57:19;4.00;;;0.95;;
4857;SDS011;58975;51.978;8.472;2022-10-16T09:02:28;2.80;;;0.80;;
4857;SDS011;58975;51.978;8.472;2022-10-16T09:23:19;4.57;;;0.93;;
4857;SDS011;58975;51.978;8.472;2022-10-16T09:28:21;3.17;;;0.85;;
4857;SDS011;58975;51.978;8.472;2022-10-16T09:33:18;2.13;;;0.77;;
4857;SDS011;58975;51.978;8.472;2022-10-16T09:38:24;4.38;;;1.35;;
4857;SDS011;58975;51.978;8.472;2022-10-16T09:43:25;1.73;;;0.70;;
4857;SDS011;58975;51.978;8.472;2022-10-16T09:48:28;2.80;;;0.70;;
4857;SDS011;58975;51.978;8.472;2022-10-16T09:53:41;1.20;;;0.90;;
4857;SDS011;58975;51.978;8.472;2022-10-16T09:58:43;1.13;;;0.47;;
4857;SDS011;58975;51.978;8.472;2022-10-16T10:09:54;1.20;;;0.43;;
4857;SDS011;58975;51.978;8.472;2022-10-16T10:14:53;2.47;;;0.50;;
4857;SDS011;58975;51.978;8.472;2022-10-16T10:19:56;2.03;;;0.43;;
4857;SDS011;58975;51.978;8.472;2022-10-16T10:35:19;1.85;;;0.63;;
4857;SDS011;58975;51.978;8.472;2022-10-16T10:40:23;1.00;;;0.50;;
4857;SDS011;58975;51.978;8.472;2022-10-16T10:45:27;2.63;;;0.60;;
4857;SDS011;58975;51.978;8.472;2022-10-16T10:50:43;1.05;;;0.55;;
4857;SDS011;58975;51.978;8.472;2022-10-16T10:55:47;0.38;;;0.32;;
4857;SDS011;58975;51.978;8.472;2022-10-16T11:06:22;1.40;;;0.50;;
4857;SDS011;58975;51.978;8.472;2022-10-16T11:11:24;1.17;;;0.55;;
4857;SDS011;58975;51.978;8.472;2022-10-16T11:16:29;0.77;;;0.55;;
4857;SDS011;58975;51.978;8.472;2022-10-16T11:21:29;1.73;;;0.40;;
4857;SDS011;58975;51.978;8.472;2022-10-16T11:26:39;2.40;;;0.70;;
4857;SDS011;58975;51.978;8.472;2022-10-16T11:31:39;2.22;;;0.50;;
4857;SDS011;58975;51.978;8.472;2022-10-16T11:47:01;1.55;;;0.50;;
4857;SDS011;58975;51.978;8.472;2022-10-16T11:52:39;1.75;;;0.57;;
4857;SDS011;58975;51.978;8.472;2022-10-16T11:57:47;2.47;;;0.50;;
4857;SDS011;58975;51.978;8.472;2022-10-16T12:08:30;2.97;;;0.63;;
4857;SDS011;58975;51.978;8.472;2022-10-16T12:13:27;1.02;;;0.60;;
4857;SDS011;58975;51.978;8.472;2022-10-16T12:18:28;0.63;;;0.30;;
4857;SDS011;58975;51.978;8.472;2022-10-16T12:23:25;8.00;;;0.95;;
4857;SDS011;58975;51.978;8.472;2022-10-16T12:28:22;0.88;;;0.47;;
4857;SDS011;58975;51.978;8.472;2022-10-16T12:33:25;3.17;;;1.42;;
4857;SDS011;58975;51.978;8.472;2022-10-16T12:38:37;1.95;;;0.52;;
4857;SDS011;58975;51.978;8.472;2022-10-16T12:43:43;0.63;;;0.60;;
4857;SDS011;58975;51.978;8.472;2022-10-16T12:48:44;0.40;;;0.40;;
4857;SDS011;58975;51.978;8.472;2022-10-16T12:54:11;3.53;;;0.68;;
4857;SDS011;58975;51.978;8.472;2022-10-16T12:59:19;4.82;;;0.70;;
4857;SDS011;58975;51.978;8.472;2022-10-16T13:20:35;2.15;;;0.60;;
4857;SDS011;58975;51.978;8.472;2022-10-16T13:31:12;5.47;;;0.63;;
4857;SDS011;58975;51.978;8.472;2022-10-16T13:36:23;2.05;;;0.60;;
4857;SDS011;58975;51.978;8.472;2022-10-16T13:41:21;1.50;;;0.70;;
4857;SDS011;58975;51.978;8.472;2022-10-16T13:46:24;1.13;;;0.80;;
4857;SDS011;58975;51.978;8.472;2022-10-16T13:51:21;2.45;;;0.50;;
4857;SDS011;58975;51.978;8.472;2022-10-16T13:56:19;2.70;;;1.15;;
4857;SDS011;58975;51.978;8.472;2022-10-16T14:01:18;2.47;;;0.75;;
4857;SDS011;58975;51.978;8.472;2022-10-16T14:06:23;2.22;;;0.70;;
4857;SDS011;58975;51.978;8.472;2022-10-16T14:11:21;2.30;;;1.08;;
4857;SDS011;58975;51.978;8.472;2022-10-16T14:16:20;4.45;;;0.55;;
4857;SDS011;58975;51.978;8.472;2022-10-16T14:21:18;2.05;;;0.93;;
4857;SDS011;58975;51.978;8.472;2022-10-16T14:26:17;2.33;;;0.73;;
4857;SDS011;58975;51.978;8.472;2022-10-16T14:31:26;4.00;;;0.80;;
4857;SDS011;58975;51.978;8.472;2022-10-16T14:36:27;2.20;;;0.60;;
4857;SDS011;58975;51.978;8.472;2022-10-16T14:41:25;2.85;;;0.85;;
4857;SDS011;58975;51.978;8.472;2022-10-16T14:46:22;2.75;;;0.70;;
4857;SDS011;58975;51.978;8.472;2022-10-16T14:51:29;3.78;;;0.70;;
4857;SDS011;58975;51.978;8.472;2022-10-16T14:56:28;0.82;;;0.60;;
4857;SDS011;58975;51.978;8.472;2022-10-16T15:01:28;3.17;;;0.82;;
4857;SDS011;58975;51.978;8.472;2022-10-16T15:06:25;2.25;;;0.52;;
4857;SDS011;58975;51.978;8.472;2022-10-16T15:11:21;3.53;;;0.85;;
4857;SDS011;58975;51.978;8.472;2022-10-16T15:16:17;2.25;;;0.85;;
4857;SDS011;58975;51.978;8.472;2022-10-16T15:21:32;1.85;;;1.10;;
4857;SDS011;58975;51.978;8.472;2022-10-16T15:26:29;1.23;;;0.90;;
4857;SDS011;58975;51.978;8.472;2022-10-16T15:31:26;2.97;;;0.73;;
4857;SDS011;58975;51.978;8.472;2022-10-16T15:36:26;1.83;;;0.50;;
4857;SDS011;58975;51.978;8.472;2022-10-16T15:41:32;5.93;;;0.88;;
4857;SDS011;58975;51.978;8.472;2022-10-16T15:46:29;2.47;;;0.70;;
4857;SDS011;58975;51.978;8.472;2022-10-16T15:51:27;1.80;;;0.60;;
4857;SDS011;58975;51.978;8.472;2022-10-16T15:56:25;2.15;;;1.08;;
4857;SDS011;58975;51.978;8.472;2022-10-16T16:01:22;3.00;;;0.80;;
4857;SDS011;58975;51.978;8.472;2022-10-16T16:06:18;1.90;;;0.75;;
4857;SDS011;58975;51.978;8.472;2022-10-16T16:11:16;2.28;;;0.90;;
4857;SDS011;58975;51.978;8.472;2022-10-16T16:21:11;3.42;;;1.10;;
4857;SDS011;58975;51.978;8.472;2022-10-16T16:31:26;1.47;;;0.70;;
4857;SDS011;58975;51.978;8.472;2022-10-16T16:36:23;1.48;;;0.68;;
4857;SDS011;58975;51.978;8.472;2022-10-16T16:41:22;2.97;;;1.10;;
4857;SDS011;58975;51.978;8.472;2022-10-16T16:46:22;1.98;;;1.13;;
4857;SDS011;58975;51.978;8.472;2022-10-16T16:51:18;7.07;;;2.22;;
4857;SDS011;58975;51.978;8.472;2022-10-16T16:56:16;2.17;;;1.27;;
4857;SDS011;58975;51.978;8.472;2022-10-16T17:01:13;1.27;;;1.00;;
4857;SDS011;58975;51.978;8.472;2022-10-16T17:06:16;4.63;;;1.48;;
4857;SDS011;58975;51.978;8.472;2022-10-16T17:11:20;1.98;;;1.48;;
4857;SDS011;58975;51.978;8.472;2022-10-16T17:16:18;4.45;;;1.40;;
4857;SDS011;58975;51.978;8.472;2022-10-16T17:21:15;3.20;;;2.05;;
4857;SDS011;58975;51.978;8.472;2022-10-16T17:26:12;3.75;;;1.63;;
4857;SDS011;58975;51.978;8.472;2022-10-16T17:31:12;4.38;;;2.10;;
4857;SDS011;58975;51.978;8.472;2022-10-16T17:36:30;4.72;;;1.98;;
4857;SDS011;58975;51.978;8.472;2022-10-16T17:41:29;6.15;;;2.00;;
4857;SDS011;58975;51.978;8.472;2022-10-16T17:46:26;3.07;;;1.80;;
4857;SDS011;58975;51.978;8.472;2022-10-16T17:51:24;3.65;;;1.85;;
4857;SDS011;58975;51.978;8.472;2022-10-16T17:56:22;4.28;;;2.63;;
4857;SDS011;58975;51.978;8.472;2022-10-16T18:06:16;8.45;;;4.97;;
4857;SDS011;58975;51.978;8.472;2022-10-16T18:11:19;6.40;;;2.90;;
4857;SDS011;58975;51.978;8.472;2022-10-16T18:16:16;6.72;;;2.72;;
4857;SDS011;58975;51.978;8.472;2022-10-16T18:21:13;7.35;;;3.08;;
4857;SDS011;58975;51.978;8.472;2022-10-16T18:26:12;4.28;;;2.45;;
4857;SDS011;58975;51.978;8.472;2022-10-16T18:31:13;5.97;;;2.80;;
4857;SDS011;58975;51.978;8.472;2022-10-16T18:36:10;9.20;;;6.32;;
4857;SDS011;58975;51.978;8.472;2022-10-16T18:41:07;7.85;;;4.10;;
4857;SDS011;58975;51.978;8.472;2022-10-16T18:46:05;5.15;;;3.88;;
4857;SDS011;58975;51.978;8.472;2022-10-16T18:51:10;6.60;;;3.95;;
4857;SDS011;58975;51.978;8.472;2022-10-16T18:56:10;5.75;;;3.83;;
4857;SDS011;58975;51.978;8.472;2022-10-16T19:01:13;6.28;;;3.90;;
4857;SDS011;58975;51.978;8.472;2022-10-16T19:06:13;8.77;;;3.70;;
4857;SDS011;58975;51.978;8.472;2022-10-16T19:11:12;8.20;;;3.70;;
4857;SDS011;58975;51.978;8.472;2022-10-16T19:16:13;7.88;;;3.92;;
4857;SDS011;58975;51.978;8.472;2022-10-16T19:21:20;6.93;;;4.25;;
4857;SDS011;58975;51.978;8.472;2022-10-16T19:26:17;5.63;;;3.75;;
4857;SDS011;58975;51.978;8.472;2022-10-16T19:31:15;7.72;;;3.45;;
4857;SDS011;58975;51.978;8.472;2022-10-16T19:41:13;10.10;;;4.57;;
4857;SDS011;58975;51.978;8.472;2022-10-16T19:46:12;7.43;;;4.00;;
4857;SDS011;58975;51.978;8.472;2022-10-16T19:51:12;7.22;;;2.97;;
4857;SDS011;58975;51.978;8.472;2022-10-16T19:56:16;7.35;;;3.50;;
4857;SDS011;58975;51.978;8.472;2022-10-16T20:01:16;6.70;;;4.88;;
4857;SDS011;58975;51.978;8.472;2022-10-16T20:06:13;6.20;;;2.88;;
4857;SDS011;58975;51.978;8.472;2022-10-16T20:11:12;6.55;;;3.08;;
4857;SDS011;58975;51.978;8.472;2022-10-16T20:16:14;2.40;;;1.90;;
4857;SDS011;58975;51.978;8.472;2022-10-16T20:21:15;3.28;;;2.20;;
4857;SDS011;58975;51.978;8.472;2022-10-16T20:26:13;2.83;;;2.17;;
4857;SDS011;58975;51.978;8.472;2022-10-16T20:31:12;8.60;;;1.70;;
4857;SDS011;58975;51.978;8.472;2022-10-16T20:36:13;4.32;;;1.20;;
4857;SDS011;58975;51.978;8.472;2022-10-16T20:41:10;3.83;;;1.40;;
4857;SDS011;58975;51.978;8.472;2022-10-16T20:46:08;4.38;;;1.35;;
4857;SDS011;58975;51.978;8.472;2022-10-16T20:56:27;2.50;;;1.10;;
4857;SDS011;58975;51.978;8.472;2022-10-16T21:01:26;4.50;;;1.08;;
4857;SDS011;58975;51.978;8.472;2022-10-16T21:06:24;6.85;;;1.30;;
4857;SDS011;58975;51.978;8.472;2022-10-16T21:11:22;5.00;;;1.30;;
4857;SDS011;58975;51.978;8.472;2022-10-16T21:16:21;4.35;;;1.10;;
4857;SDS011;58975;51.978;8.472;2022-10-16T21:21:24;5.93;;;1.10;;
4857;SDS011;58975;51.978;8.472;2022-10-16T21:26:23;1.50;;;1.30;;
4857;SDS011;58975;51.978;8.472;2022-10-16T21:31:23;4.80;;;1.63;;
4857;SDS011;58975;51.978;8.472;2022-10-16T21:36:23;5.55;;;1.35;;
4857;SDS011;58975;51.978;8.472;2022-10-16T21:41:23;2.53;;;1.25;;
4857;SDS011;58975;51.978;8.472;2022-10-16T21:46:22;2.90;;;1.10;;
4857;SDS011;58975;51.978;8.472;2022-10-16T21:51:20;3.72;;;1.30;;
4857;SDS011;58975;51.978;8.472;2022-10-16T21:56:21;1.25;;;1.10;;
4857;SDS011;58975;51.978;8.472;2022-10-16T22:01:19;4.80;;;1.30;;
4857;SDS011;58975;51.978;8.472;2022-10-16T22:06:18;1.60;;;1.27;;
4857;SDS011;58975;51.978;8.472;2022-10-16T22:11:22;5.65;;;1.40;;
4857;SDS011;58975;51.978;8.472;2022-10-16T22:16:20;3.42;;;1.88;;
4857;SDS011;58975;51.978;8.472;2022-10-16T22:21:18;3.13;;;1.48;;
4857;SDS011;58975;51.978;8.472;2022-10-16T22:26:15;1.13;;;1.02;;
4857;SDS011;58975;51.978;8.472;2022-10-16T22:31:12;2.53;;;1.30;;
4857;SDS011;58975;51.978;8.472;2022-10-16T22:36:10;4.47;;;1.65;;
4857;SDS011;58975;51.978;8.472;2022-10-16T22:41:09;1.50;;;1.40;;
4857;SDS011;58975;51.978;8.472;2022-10-16T22:46:08;2.20;;;1.90;;
4857;SDS011;58975;51.978;8.472;2022-10-16T22:51:06;2.95;;;1.98;;
4857;SDS011;58975;51.978;8.472;2022-10-16T22:56:03;2.00;;;1.70;;
4857;SDS011;58975;51.978;8.472;2022-10-16T23:00:59;2.15;;;1.40;;
4857;SDS011;58975;51.978;8.472;2022-10-16T23:05:56;4.03;;;1.88;;
4857;SDS011;58975;51.978;8.472;2022-10-16T23:10:52;2.55;;;1.95;;
4857;SDS011;58975;51.978;8.472;2022-10-16T23:15:49;5.05;;;1.80;;
4857;SDS011;58975;51.978;8.472;2022-10-16T23:20:45;4.35;;;1.95;;
4857;SDS011;58975;51.978;8.472;2022-10-16T23:25:45;4.47;;;2.17;;
4857;SDS011;58975;51.978;8.472;2022-10-16T23:30:44;4.75;;;2.03;;
4857;SDS011;58975;51.978;8.472;2022-10-16T23:35:41;5.30;;;2.50;;
4857;SDS011;58975;51.978;8.472;2022-10-16T23:40:37;4.45;;;2.75;;
4857;SDS011;58975;51.978;8.472;2022-10-16T23:45:33;3.03;;;2.50;;
4857;SDS011;58975;51.978;8.472;2022-10-16T23:50:30;4.32;;;2.75;;
4857;SDS011;58975;51.978;8.472;2022-10-16T23:55:26;3.60;;;2.88;;
